Time;durP1;ratioP1;P1;durP2;ratioP2;P2;SDS_P1;SDS_P2;PMS_P1;PMS_P2;Temp;Humidity;BMP_temperature;BMP_pressure;BME280_temperature;BME280_humidity;BME280_pressure;Samples;Min_cycle;Max_cycle;Signal;HPM_P1;HPM_P2
2021/06/09 00:01:39;;;;;;;9.57;7.55;;;15.90;99.90;;;;;;5007868;28;20086;-73
2021/06/09 00:04:04;;;;;;;8.70;7.80;;;15.90;99.90;;;;;;5005867;28;20120;-73
2021/06/09 00:06:30;;;;;;;9.90;8.20;;;15.90;99.90;;;;;;5006269;28;20078;-73
2021/06/09 00:08:55;;;;;;;9.05;8.00;;;15.90;99.90;;;;;;5021567;28;20090;-73
2021/06/09 00:11:21;;;;;;;8.55;7.72;;;15.80;99.90;;;;;;5006224;28;20446;-73
2021/06/09 00:13:47;;;;;;;8.35;7.65;;;15.90;99.90;;;;;;5010826;28;20986;-73
2021/06/09 00:16:17;;;;;;;9.32;7.80;;;15.90;99.90;;;;;;5010693;28;20137;-73
2021/06/09 00:18:43;;;;;;;8.20;7.40;;;15.80;99.90;;;;;;5013587;28;20143;-73
2021/06/09 00:21:09;;;;;;;8.10;7.30;;;15.80;99.90;;;;;;5010004;28;20141;-73
2021/06/09 00:23:35;;;;;;;8.32;7.53;;;15.70;99.90;;;;;;5013342;28;20109;-73
2021/06/09 00:26:03;;;;;;;7.97;6.75;;;15.60;99.90;;;;;;5017888;28;20082;-73
2021/06/09 00:28:29;;;;;;;8.15;7.35;;;15.70;99.90;;;;;;5008135;28;20116;-73
2021/06/09 00:30:55;;;;;;;8.23;7.43;;;15.80;99.90;;;;;;5010732;28;20070;-73
2021/06/09 00:33:21;;;;;;;8.23;7.45;;;15.70;99.90;;;;;;5008811;28;20470;-73
2021/06/09 00:35:47;;;;;;;8.45;7.07;;;15.70;99.90;;;;;;5013083;28;20105;-73
2021/06/09 00:38:13;;;;;;;8.20;7.32;;;15.70;99.90;;;;;;5010031;28;20461;-73
2021/06/09 00:40:39;;;;;;;9.27;8.00;;;15.40;99.90;;;;;;5014939;28;20091;-73
2021/06/09 00:43:09;;;;;;;9.48;8.35;;;15.40;99.90;;;;;;5006309;28;20098;-73
2021/06/09 00:45:37;;;;;;;8.40;7.60;;;15.50;99.90;;;;;;5007278;28;20165;-73
2021/06/09 00:48:04;;;;;;;11.38;8.32;;;15.50;99.90;;;;;;5010973;28;20127;-73
2021/06/09 00:50:29;;;;;;;8.15;7.45;;;15.50;99.90;;;;;;5004236;28;20597;-73
2021/06/09 00:53:26;;;;;;;8.40;7.53;;;15.50;99.90;;;;;;5006186;28;20173;-73
2021/06/09 00:55:41;;;;;;;9.02;8.13;;;15.60;99.90;;;;;;5005666;28;20079;-73
2021/06/09 00:58:07;;;;;;;9.40;8.50;;;15.50;99.90;;;;;;5005369;28;20094;-73
2021/06/09 01:00:33;;;;;;;8.35;7.55;;;15.50;99.90;;;;;;5005797;28;20077;-73
2021/06/09 01:02:58;;;;;;;9.75;8.38;;;15.50;99.90;;;;;;5020800;28;20078;-73
2021/06/09 01:05:24;;;;;;;10.77;8.25;;;15.40;99.90;;;;;;5005971;28;20101;-73
2021/06/09 01:07:50;;;;;;;8.43;7.63;;;15.40;99.90;;;;;;5006649;28;20590;-73
2021/06/09 01:10:15;;;;;;;9.05;8.15;;;15.40;99.90;;;;;;5006340;28;20479;-73
2021/06/09 01:12:41;;;;;;;7.93;7.13;;;15.30;99.90;;;;;;5013478;28;20078;-73
2021/06/09 01:15:08;;;;;;;9.35;8.13;;;15.20;99.90;;;;;;5011003;28;20085;-73
2021/06/09 01:17:33;;;;;;;11.10;9.23;;;15.30;99.90;;;;;;5023556;28;20107;-73
2021/06/09 01:20:00;;;;;;;9.55;8.52;;;15.30;99.90;;;;;;5010682;28;20200;-73
2021/06/09 01:22:25;;;;;;;9.95;8.95;;;15.20;99.90;;;;;;5009477;28;20128;-73
2021/06/09 01:24:51;;;;;;;9.02;8.13;;;15.20;99.90;;;;;;5030642;28;20102;-73
2021/06/09 01:27:21;;;;;;;8.45;7.65;;;15.30;99.90;;;;;;5010647;28;20117;-73
2021/06/09 01:29:46;;;;;;;9.00;8.10;;;15.10;99.90;;;;;;5009941;28;20086;-73
2021/06/09 01:32:13;;;;;;;10.55;8.15;;;15.00;99.90;;;;;;5011520;28;20074;-73
2021/06/09 01:34:38;;;;;;;8.75;7.85;;;14.90;99.90;;;;;;5007215;28;20083;-73
2021/06/09 01:37:04;;;;;;;10.23;8.00;;;14.90;99.90;;;;;;5010872;28;20082;-73
2021/06/09 01:39:30;;;;;;;10.65;9.20;;;14.90;99.90;;;;;;5026714;28;20585;-73
2021/06/09 01:41:56;;;;;;;9.40;8.32;;;14.90;99.90;;;;;;5011695;28;20718;-73
2021/06/09 01:44:21;;;;;;;11.80;8.45;;;14.90;99.90;;;;;;5010005;28;20090;-73
2021/06/09 01:46:47;;;;;;;9.50;8.50;;;14.90;99.90;;;;;;5009201;28;20140;-73
2021/06/09 01:49:14;;;;;;;9.68;8.77;;;14.80;99.90;;;;;;5010171;28;20531;-73
2021/06/09 01:51:40;;;;;;;10.85;8.85;;;14.80;99.90;;;;;;5023479;28;20528;-73
2021/06/09 01:54:08;;;;;;;9.90;8.90;;;14.90;99.90;;;;;;5010963;28;20602;-73
2021/06/09 01:56:34;;;;;;;10.43;8.23;;;14.80;99.90;;;;;;5010060;28;20476;-73
2021/06/09 01:59:15;;;;;;;11.18;8.50;;;14.80;99.90;;;;;;5009537;28;20106;-72
2021/06/09 02:01:41;;;;;;;9.98;7.85;;;14.70;99.90;;;;;;5009916;28;20656;-73
2021/06/09 02:04:11;;;;;;;9.63;8.50;;;14.80;99.90;;;;;;5023897;28;20586;-73
2021/06/09 02:06:41;;;;;;;10.75;8.32;;;14.80;99.90;;;;;;5027678;28;20159;-73
2021/06/09 02:09:08;;;;;;;11.02;9.88;;;14.80;99.90;;;;;;5024886;28;20520;-73
2021/06/09 02:11:33;;;;;;;10.45;9.32;;;14.80;99.90;;;;;;5010937;28;20081;-73
2021/06/09 02:14:00;;;;;;;10.90;9.80;;;14.90;99.90;;;;;;5009054;28;20133;-73
2021/06/09 02:16:33;;;;;;;10.48;8.93;;;14.80;99.90;;;;;;5010438;28;20165;-73
2021/06/09 02:18:59;;;;;;;14.33;9.23;;;14.80;99.90;;;;;;5030617;28;20481;-73
2021/06/09 02:21:25;;;;;;;9.70;8.80;;;14.70;99.90;;;;;;5009483;28;20089;-73
2021/06/09 02:23:50;;;;;;;10.75;9.65;;;14.70;99.90;;;;;;5008436;28;20112;-73
2021/06/09 02:26:16;;;;;;;10.75;9.68;;;14.70;99.90;;;;;;5022007;28;20136;-73
2021/06/09 02:28:44;;;;;;;8.98;8.07;;;14.70;99.90;;;;;;5009454;28;20129;-73
2021/06/09 02:31:11;;;;;;;10.07;8.90;;;14.70;99.90;;;;;;5024716;28;20181;-73
2021/06/09 02:33:37;;;;;;;10.75;9.65;;;14.80;99.90;;;;;;5010145;28;20794;-73
2021/06/09 02:36:05;;;;;;;11.38;9.73;;;14.80;99.90;;;;;;5026660;28;20078;-73
2021/06/09 02:38:30;;;;;;;10.63;9.60;;;14.70;99.90;;;;;;5009609;28;20097;-73
2021/06/09 02:40:57;;;;;;;11.80;9.80;;;14.70;99.90;;;;;;5024811;28;20079;-73
2021/06/09 02:43:30;;;;;;;12.15;10.90;;;14.50;99.90;;;;;;5007217;28;20090;-73
2021/06/09 02:45:58;;;;;;;13.13;9.90;;;14.60;99.90;;;;;;5008053;28;20082;-73
2021/06/09 02:48:29;;;;;;;13.05;11.07;;;14.60;99.90;;;;;;5018032;28;20081;-73
2021/06/09 02:50:54;;;;;;;11.38;10.02;;;14.60;99.90;;;;;;5013666;28;20070;-73
2021/06/09 02:53:27;;;;;;;15.48;10.02;;;14.70;99.90;;;;;;5007670;28;20641;-73
2021/06/09 02:56:12;;;;;;;11.43;9.30;;;14.70;99.90;;;;;;5008035;28;20082;-73
2021/06/09 02:58:59;;;;;;;12.38;9.32;;;14.70;99.90;;;;;;5009098;28;20144;-73
2021/06/09 03:01:58;;;;;;;10.82;9.73;;;14.60;99.90;;;;;;5007928;28;20435;-73
2021/06/09 03:04:51;;;;;;;10.55;9.45;;;14.60;99.90;;;;;;5023988;28;20112;-73
2021/06/09 03:07:24;;;;;;;11.02;9.90;;;14.50;99.90;;;;;;5008869;28;20169;-73
2021/06/09 03:10:10;;;;;;;11.80;10.68;;;14.50;99.90;;;;;;5025045;28;20082;-73
2021/06/09 03:12:48;;;;;;;12.73;10.55;;;14.50;99.90;;;;;;5008260;28;20074;-73
2021/06/09 03:15:45;;;;;;;12.68;10.32;;;14.60;99.90;;;;;;5019499;28;20086;-73
2021/06/09 03:18:22;;;;;;;13.70;9.70;;;14.50;99.90;;;;;;5008769;28;20086;-73
2021/06/09 03:20:59;;;;;;;14.50;10.30;;;14.50;99.90;;;;;;5007761;28;20160;-73
2021/06/09 03:23:52;;;;;;;14.85;10.05;;;14.50;99.90;;;;;;5008026;28;20088;-73
2021/06/09 03:26:26;;;;;;;11.27;9.70;;;14.50;99.90;;;;;;5007928;28;20132;-73
2021/06/09 03:29:07;;;;;;;11.45;9.90;;;14.50;99.90;;;;;;5023538;28;20081;-73
2021/06/09 03:31:42;;;;;;;11.93;10.02;;;14.50;99.90;;;;;;5010792;28;20074;-73
2021/06/09 03:34:16;;;;;;;11.65;10.32;;;14.50;99.90;;;;;;5010186;28;20089;-73
2021/06/09 03:36:43;;;;;;;12.70;10.60;;;14.40;99.90;;;;;;5007301;28;20619;-73
2021/06/09 03:39:11;;;;;;;12.90;11.60;;;14.40;99.90;;;;;;5006723;28;20086;-73
2021/06/09 03:41:54;;;;;;;12.38;11.05;;;14.40;99.90;;;;;;5007916;28;20086;-73
2021/06/09 03:44:30;;;;;;;11.32;10.18;;;14.40;99.90;;;;;;5010572;28;20086;-73
2021/06/09 03:46:57;;;;;;;11.07;9.77;;;14.50;99.90;;;;;;5010820;28;20077;-73
2021/06/09 03:49:23;;;;;;;11.68;10.48;;;14.50;99.90;;;;;;5008929;28;20082;-73
2021/06/09 03:51:51;;;;;;;11.85;10.65;;;14.50;99.90;;;;;;5007455;28;20077;-73
2021/06/09 03:54:18;;;;;;;11.75;9.77;;;14.60;99.90;;;;;;5006788;28;20524;-73
2021/06/09 03:56:46;;;;;;;12.68;11.38;;;14.60;99.90;;;;;;5021715;28;20087;-73
2021/06/09 03:59:13;;;;;;;12.02;10.73;;;14.60;99.90;;;;;;5008186;28;20110;-73
2021/06/09 04:01:40;;;;;;;16.27;10.98;;;14.70;99.90;;;;;;5007686;28;20070;-73
2021/06/09 04:04:07;;;;;;;12.55;11.20;;;14.60;99.90;;;;;;5008423;28;20562;-73
2021/06/09 04:07:05;;;;;;;14.15;11.07;;;14.60;99.90;;;;;;5009381;28;20105;-73
2021/06/09 04:09:32;;;;;;;15.18;12.18;;;14.60;99.90;;;;;;5011510;28;20105;-73
2021/06/09 04:12:01;;;;;;;12.88;11.55;;;14.60;99.90;;;;;;5009868;28;20082;-73
2021/06/09 04:14:37;;;;;;;12.43;11.15;;;14.80;99.90;;;;;;5007520;28;20090;-73
2021/06/09 04:17:05;;;;;;;17.08;12.45;;;14.90;99.90;;;;;;5006919;28;20074;-73
2021/06/09 04:19:32;;;;;;;13.43;12.00;;;15.00;99.90;;;;;;5011989;28;20181;-73
2021/06/09 04:21:59;;;;;;;13.40;12.00;;;15.10;99.90;;;;;;5023310;28;20531;-73
2021/06/09 04:24:25;;;;;;;14.80;11.68;;;15.10;99.90;;;;;;5007000;28;20094;-73
2021/06/09 04:26:53;;;;;;;14.48;12.40;;;15.00;99.90;;;;;;5010279;28;20110;-73
2021/06/09 04:29:21;;;;;;;12.40;11.13;;;15.10;99.90;;;;;;5012539;28;20434;-73
2021/06/09 04:31:47;;;;;;;12.85;11.32;;;15.10;99.90;;;;;;5007927;28;20136;-73
2021/06/09 04:34:12;;;;;;;14.48;11.82;;;15.10;99.90;;;;;;5007330;28;20089;-73
2021/06/09 04:36:38;;;;;;;14.07;12.27;;;15.20;99.90;;;;;;5006920;28;20535;-73
2021/06/09 04:39:04;;;;;;;15.02;11.77;;;15.20;99.90;;;;;;5006396;28;20098;-73
2021/06/09 04:41:30;;;;;;;16.35;12.15;;;15.10;99.90;;;;;;5008281;28;20119;-73
2021/06/09 04:43:55;;;;;;;13.38;11.73;;;15.20;99.90;;;;;;5008944;28;20152;-73
2021/06/09 04:46:23;;;;;;;13.85;11.52;;;15.30;99.90;;;;;;5026471;28;20116;-73
2021/06/09 04:49:03;;;;;;;12.43;11.13;;;15.40;99.90;;;;;;5032408;22;20092;-73
2021/06/09 04:51:31;;;;;;;14.10;11.90;;;15.60;99.90;;;;;;5044717;28;20080;-72
2021/06/09 04:53:58;;;;;;;12.38;10.63;;;15.70;99.90;;;;;;5047776;28;20077;-70
2021/06/09 04:56:24;;;;;;;13.23;11.50;;;15.80;99.90;;;;;;5046934;28;20616;-70
2021/06/09 04:58:50;;;;;;;11.98;10.82;;;15.80;99.90;;;;;;5050161;28;20119;-70
2021/06/09 05:01:15;;;;;;;14.60;11.40;;;15.90;99.90;;;;;;5050161;28;20085;-70
2021/06/09 05:03:41;;;;;;;13.38;11.02;;;16.00;99.90;;;;;;5051079;28;20124;-70
2021/06/09 05:06:07;;;;;;;14.35;10.98;;;16.00;99.90;;;;;;5037334;28;20823;-70
2021/06/09 05:08:32;;;;;;;12.82;10.80;;;16.00;99.90;;;;;;5047662;28;20553;-70
2021/06/09 05:11:02;;;;;;;12.02;10.93;;;16.00;99.90;;;;;;5022826;28;20085;-70
2021/06/09 05:13:33;;;;;;;13.23;11.82;;;16.10;99.90;;;;;;5046246;28;20090;-70
2021/06/09 05:16:07;;;;;;;13.02;10.52;;;16.10;99.90;;;;;;5032179;28;20082;-69
2021/06/09 05:18:40;;;;;;;13.52;11.63;;;16.10;99.90;;;;;;5048305;28;20164;-69
2021/06/09 05:21:08;;;;;;;12.30;11.10;;;16.10;99.90;;;;;;5045670;28;20604;-71
2021/06/09 05:23:37;;;;;;;12.48;10.75;;;16.20;99.90;;;;;;5043787;28;20086;-70
2021/06/09 05:26:04;;;;;;;12.50;10.43;;;16.20;99.90;;;;;;5048929;28;20077;-70
2021/06/09 05:28:34;;;;;;;16.90;12.13;;;16.30;99.90;;;;;;5031065;28;20235;-70
2021/06/09 05:31:00;;;;;;;12.25;10.35;;;16.40;99.90;;;;;;5049956;28;20120;-70
2021/06/09 05:33:28;;;;;;;13.20;10.82;;;16.30;99.90;;;;;;5030997;28;20101;-70
2021/06/09 05:35:55;;;;;;;11.65;9.93;;;16.50;99.90;;;;;;5045767;28;20078;-70
2021/06/09 05:38:22;;;;;;;12.65;11.32;;;16.60;99.90;;;;;;5043521;28;20092;-70
2021/06/09 05:40:48;;;;;;;12.60;11.32;;;16.60;99.90;;;;;;5043608;28;20077;-70
2021/06/09 05:43:21;;;;;;;11.77;10.50;;;16.80;99.90;;;;;;5045521;28;20112;-70
2021/06/09 05:45:47;;;;;;;11.68;10.35;;;16.80;99.90;;;;;;5046850;28;20092;-71
2021/06/09 05:48:13;;;;;;;14.13;11.50;;;16.70;99.90;;;;;;5048824;28;20081;-71
2021/06/09 05:50:39;;;;;;;12.82;11.38;;;16.70;99.90;;;;;;5040082;28;20244;-73
2021/06/09 05:53:04;;;;;;;12.35;11.13;;;16.80;99.90;;;;;;5047290;28;20120;-71
2021/06/09 05:55:32;;;;;;;12.30;11.10;;;16.80;99.90;;;;;;5047039;28;20238;-71
2021/06/09 05:58:02;;;;;;;13.40;12.00;;;16.80;99.90;;;;;;5027007;28;20143;-72
2021/06/09 06:00:29;;;;;;;14.02;11.45;;;16.90;99.90;;;;;;5038428;28;20569;-71
2021/06/09 06:02:55;;;;;;;13.82;11.00;;;16.90;99.90;;;;;;5048331;28;20100;-71
2021/06/09 06:05:22;;;;;;;14.27;11.27;;;17.00;99.90;;;;;;5049140;28;20100;-70
2021/06/09 06:07:48;;;;;;;11.75;10.05;;;17.10;99.90;;;;;;5046109;28;20548;-70
2021/06/09 06:10:15;;;;;;;14.70;11.48;;;17.10;99.90;;;;;;5025523;28;20093;-70
2021/06/09 06:12:42;;;;;;;15.10;10.73;;;17.20;99.90;;;;;;5048260;28;20146;-71
2021/06/09 06:15:11;;;;;;;12.38;10.98;;;17.30;99.90;;;;;;5049313;28;20085;-71
2021/06/09 06:17:46;;;;;;;14.65;11.55;;;17.30;99.90;;;;;;5042391;28;20445;-71
2021/06/09 06:20:17;;;;;;;13.82;11.90;;;17.40;99.90;;;;;;5023594;28;20108;-72
2021/06/09 06:22:44;;;;;;;13.70;11.52;;;17.40;99.90;;;;;;5024029;28;20087;-72
2021/06/09 06:25:16;;;;;;;12.80;11.10;;;17.50;99.90;;;;;;5043542;28;20104;-71
2021/06/09 06:27:42;;;;;;;14.68;11.35;;;17.60;99.90;;;;;;5043513;28;20103;-72
2021/06/09 06:30:11;;;;;;;15.32;11.23;;;17.70;99.90;;;;;;5020208;28;20094;-72
2021/06/09 06:32:38;;;;;;;13.82;10.80;;;17.70;99.90;;;;;;5042310;28;20070;-72
2021/06/09 06:35:04;;;;;;;12.77;11.38;;;17.90;99.90;;;;;;5042993;28;20092;-72
2021/06/09 06:37:31;;;;;;;13.77;11.02;;;18.00;99.90;;;;;;5020317;28;20069;-72
2021/06/09 06:39:56;;;;;;;12.45;11.20;;;18.00;99.90;;;;;;5042647;28;20120;-72
2021/06/09 06:42:22;;;;;;;12.85;11.23;;;18.10;99.90;;;;;;5029443;28;20159;-72
2021/06/09 06:44:48;;;;;;;14.73;11.27;;;18.10;99.90;;;;;;5043769;28;20112;-71
2021/06/09 06:47:18;;;;;;;13.70;11.05;;;18.20;99.90;;;;;;5047778;28;20074;-72
2021/06/09 06:49:44;;;;;;;12.50;11.15;;;18.30;99.90;;;;;;5045574;28;20093;-72
2021/06/09 06:52:10;;;;;;;12.45;11.15;;;18.30;99.90;;;;;;5047620;28;20077;-71
2021/06/09 06:54:35;;;;;;;13.18;11.70;;;18.40;99.90;;;;;;5026467;28;20171;-71
2021/06/09 06:57:01;;;;;;;13.32;12.02;;;18.50;99.90;;;;;;5047540;28;20154;-71
2021/06/09 06:59:27;;;;;;;12.18;10.95;;;18.60;99.90;;;;;;5030718;28;20112;-71
2021/06/09 07:01:54;;;;;;;13.90;11.35;;;18.60;99.90;;;;;;5049326;28;20077;-72
2021/06/09 07:04:21;;;;;;;14.82;12.80;;;18.60;99.90;;;;;;5046529;28;20097;-71
2021/06/09 07:06:49;;;;;;;16.38;12.27;;;18.50;99.90;;;;;;5045258;28;20613;-71
2021/06/09 07:09:20;;;;;;;13.15;11.77;;;18.60;99.90;;;;;;5026533;28;20093;-71
2021/06/09 07:11:48;;;;;;;13.38;11.70;;;18.70;99.90;;;;;;5047185;28;21444;-71
2021/06/09 07:14:15;;;;;;;13.10;11.23;;;18.80;99.90;;;;;;5046457;28;20178;-71
2021/06/09 07:16:43;;;;;;;12.50;11.20;;;19.00;99.90;;;;;;5045666;28;20096;-71
2021/06/09 07:19:11;;;;;;;15.77;11.38;;;19.10;99.90;;;;;;5041838;28;20102;-71
2021/06/09 07:21:38;;;;;;;12.18;10.98;;;19.10;99.90;;;;;;5043387;28;20070;-71
2021/06/09 07:24:05;;;;;;;13.70;12.30;;;19.10;99.90;;;;;;5044269;28;20616;-71
2021/06/09 07:26:41;;;;;;;14.07;12.57;;;19.30;99.90;;;;;;5044667;28;20081;-71
2021/06/09 07:29:08;;;;;;;11.35;10.15;;;19.40;99.90;;;;;;5040004;28;20832;-71
2021/06/09 07:31:36;;;;;;;12.13;10.80;;;19.40;99.90;;;;;;5046929;28;20152;-71
2021/06/09 07:34:04;;;;;;;15.80;12.52;;;19.50;99.90;;;;;;5045457;28;20084;-71
2021/06/09 07:36:36;;;;;;;13.25;11.85;;;19.50;99.90;;;;;;5047442;28;20081;-71
2021/06/09 07:39:07;;;;;;;13.60;12.20;;;19.50;99.90;;;;;;5048291;28;20622;-71
2021/06/09 07:41:34;;;;;;;14.55;13.05;;;19.50;99.90;;;;;;5046769;28;20085;-71
2021/06/09 07:44:04;;;;;;;14.77;12.35;;;19.60;99.90;;;;;;5045013;28;20128;-71
2021/06/09 07:46:31;;;;;;;15.73;11.98;;;19.60;99.90;;;;;;5040811;28;20112;-71
2021/06/09 07:49:00;;;;;;;12.60;11.30;;;19.60;99.90;;;;;;5047131;28;20112;-72
2021/06/09 07:51:28;;;;;;;13.90;12.40;;;19.70;99.90;;;;;;5046505;28;20101;-72
2021/06/09 07:53:57;;;;;;;13.65;11.82;;;19.90;99.90;;;;;;5028248;28;20082;-72
2021/06/09 07:56:30;;;;;;;14.48;12.95;;;19.80;99.90;;;;;;5047777;28;20530;-72
2021/06/09 07:58:56;;;;;;;17.45;13.90;;;19.80;99.90;;;;;;5048367;28;20097;-72
2021/06/09 08:01:22;;;;;;;14.88;13.32;;;19.80;99.90;;;;;;5048742;28;20156;-72
2021/06/09 08:03:49;;;;;;;14.50;13.00;;;19.80;99.90;;;;;;5048097;28;20089;-72
2021/06/09 08:06:17;;;;;;;16.55;13.63;;;19.70;99.90;;;;;;5047968;28;20112;-72
2021/06/09 08:08:45;;;;;;;14.50;13.10;;;19.90;99.90;;;;;;5045530;28;20838;-72
2021/06/09 08:11:11;;;;;;;14.98;12.25;;;19.80;99.90;;;;;;5048474;28;20083;-72
2021/06/09 08:13:38;;;;;;;14.52;13.00;;;19.90;99.90;;;;;;5048150;28;20096;-73
2021/06/09 08:16:14;;;;;;;15.32;12.00;;;20.00;99.90;;;;;;5047210;28;20127;-73
2021/06/09 08:18:40;;;;;;;13.60;12.23;;;20.00;99.90;;;;;;5048334;28;20065;-72
2021/06/09 08:21:14;;;;;;;14.18;12.65;;;20.10;99.90;;;;;;5039733;28;20085;-72
2021/06/09 08:23:44;;;;;;;14.80;12.57;;;20.20;99.90;;;;;;5047882;28;20131;-72
2021/06/09 08:26:11;;;;;;;16.10;12.57;;;20.20;99.90;;;;;;5050746;28;20104;-72
2021/06/09 08:28:39;;;;;;;14.25;12.20;;;20.10;99.90;;;;;;5052304;28;20152;-72
2021/06/09 08:31:08;;;;;;;12.55;11.35;;;20.10;99.90;;;;;;5052573;28;20074;-72
2021/06/09 08:33:36;;;;;;;12.32;11.02;;;20.20;99.90;;;;;;5052812;28;20070;-72
2021/06/09 08:36:04;;;;;;;11.90;10.68;;;20.30;99.90;;;;;;5051240;28;20433;-72
2021/06/09 08:38:30;;;;;;;15.02;12.10;;;20.30;99.90;;;;;;5052459;28;20165;-72
2021/06/09 08:40:56;;;;;;;14.82;13.32;;;20.30;99.90;;;;;;5034058;28;20560;-72
2021/06/09 08:43:22;;;;;;;12.85;11.63;;;20.50;99.90;;;;;;5050648;28;20127;-72
2021/06/09 08:45:48;;;;;;;14.52;11.60;;;20.50;99.90;;;;;;5050347;28;20092;-72
2021/06/09 08:48:15;;;;;;;15.07;11.35;;;20.70;99.90;;;;;;5051699;28;20533;-72
2021/06/09 08:50:42;;;;;;;13.23;11.82;;;20.90;99.90;;;;;;5044634;28;20146;-72
2021/06/09 08:53:10;;;;;;;13.15;11.55;;;20.80;99.90;;;;;;5048617;28;20085;-72
2021/06/09 08:55:36;;;;;;;11.32;9.98;;;20.80;99.90;;;;;;5048396;28;20485;-72
2021/06/09 08:58:11;;;;;;;14.25;11.50;;;20.80;99.90;;;;;;5047629;28;20156;-72
2021/06/09 09:00:38;;;;;;;14.82;10.55;;;20.90;99.90;;;;;;5046571;28;20170;-71
2021/06/09 09:03:04;;;;;;;11.82;10.57;;;21.00;99.90;;;;;;5051826;28;20066;-72
2021/06/09 09:05:30;;;;;;;11.52;10.30;;;21.10;99.90;;;;;;5032215;28;20091;-71
2021/06/09 09:07:57;;;;;;;12.60;10.68;;;21.10;99.90;;;;;;5052110;28;20078;-71
2021/06/09 09:10:24;;;;;;;11.35;9.32;;;21.30;99.90;;;;;;5051736;28;20548;-71
2021/06/09 09:12:50;;;;;;;14.00;12.70;;;21.40;99.90;;;;;;5051513;28;20127;-72
2021/06/09 09:15:16;;;;;;;16.17;13.43;;;21.20;99.90;;;;;;5051630;28;20111;-72
2021/06/09 09:17:56;;;;;;;13.90;12.48;;;21.20;99.90;;;;;;5031972;28;20188;-72
2021/06/09 09:20:42;;;;;;;13.35;11.95;;;21.20;99.90;;;;;;5041161;28;20558;-72
2021/06/09 09:23:35;;;;;;;12.85;11.55;;;21.30;99.90;;;;;;5043806;28;20077;-72
2021/06/09 09:26:20;;;;;;;13.30;11.38;;;21.30;99.90;;;;;;5029541;28;20089;-71
2021/06/09 09:28:46;;;;;;;12.43;10.80;;;21.30;99.90;;;;;;5051609;28;20651;-72
2021/06/09 09:31:12;;;;;;;11.88;10.52;;;21.50;99.90;;;;;;5051630;28;20109;-72
2021/06/09 09:33:38;;;;;;;14.40;10.45;;;21.50;99.90;;;;;;5051477;28;20074;-72
2021/06/09 09:36:19;;;;;;;14.32;12.75;;;21.50;99.90;;;;;;5049817;28;20285;-72
2021/06/09 09:38:44;;;;;;;14.25;12.75;;;21.50;99.90;;;;;;5051592;28;20180;-72
2021/06/09 09:41:14;;;;;;;13.15;11.65;;;21.50;99.90;;;;;;5050876;28;20161;-72
2021/06/09 09:43:54;;;;;;;12.52;11.23;;;21.70;99.90;;;;;;5031795;28;20131;-72
2021/06/09 09:46:30;;;;;;;14.43;10.55;;;21.70;99.90;;;;;;5049840;28;20076;-72
2021/06/09 09:49:00;;;;;;;11.75;10.70;;;21.80;99.90;;;;;;5051088;28;20128;-72
2021/06/09 09:51:29;;;;;;;14.15;12.65;;;21.80;99.90;;;;;;5026541;28;20073;-72
2021/06/09 09:54:05;;;;;;;13.48;12.07;;;21.90;99.90;;;;;;5031039;28;20104;-72
2021/06/09 09:56:33;;;;;;;13.82;12.07;;;22.10;99.90;;;;;;5048570;28;20081;-72
2021/06/09 09:59:04;;;;;;;11.82;10.60;;;22.00;99.90;;;;;;5051187;28;20092;-72
2021/06/09 10:01:49;;;;;;;11.80;10.48;;;22.20;99.90;;;;;;5050602;28;20080;-72
2021/06/09 10:04:17;;;;;;;12.20;9.65;;;22.50;99.90;;;;;;5050787;28;20499;-72
2021/06/09 10:06:45;;;;;;;13.05;10.45;;;22.40;99.90;;;;;;5031618;28;20501;-72
2021/06/09 10:09:17;;;;;;;12.80;11.48;;;22.30;99.90;;;;;;5050667;28;20476;-72
2021/06/09 10:11:44;;;;;;;10.60;9.50;;;22.30;99.90;;;;;;5050049;28;20082;-72
2021/06/09 10:14:18;;;;;;;15.43;10.90;;;22.20;99.90;;;;;;5050793;28;20149;-72
2021/06/09 10:16:44;;;;;;;;;;;22.40;99.90;;;;;;5032877;28;20588;-72
2021/06/09 10:19:12;;;;;;;14.10;10.38;;;22.50;99.90;;;;;;5045154;28;19977;-72
2021/06/09 10:21:54;;;;;;;9.07;8.15;;;22.40;99.90;;;;;;5031775;28;20096;-73
2021/06/09 10:24:22;;;;;;;9.80;7.88;;;22.70;99.90;;;;;;5048747;28;20089;-72
2021/06/09 10:26:54;;;;;;;9.30;8.40;;;22.90;99.90;;;;;;5050501;28;20070;-70
2021/06/09 10:29:23;;;;;;;9.55;8.63;;;22.90;99.90;;;;;;5054373;28;20081;-71
2021/06/09 10:32:01;;;;;;;12.00;10.80;;;23.10;99.90;;;;;;5048822;28;20081;-71
2021/06/09 10:34:29;;;;;;;11.20;10.02;;;22.90;99.90;;;;;;5047346;28;20087;-72
2021/06/09 10:36:56;;;;;;;9.55;8.02;;;22.90;99.90;;;;;;5044691;28;20089;-75
2021/06/09 10:39:24;;;;;;;9.82;8.93;;;23.00;99.90;;;;;;5030449;28;20082;-72
2021/06/09 10:41:52;;;;;;;11.23;8.25;;;23.10;99.90;;;;;;5035191;28;20168;-72
2021/06/09 10:44:20;;;;;;;9.52;8.32;;;23.50;99.90;;;;;;5049396;28;20086;-72
2021/06/09 10:46:49;;;;;;;9.38;8.38;;;23.60;99.90;;;;;;5042082;28;20170;-71
2021/06/09 10:49:21;;;;;;;9.00;8.10;;;23.20;99.90;;;;;;5045815;28;20093;-72
2021/06/09 10:51:49;;;;;;;10.25;8.68;;;23.20;99.90;;;;;;5046976;28;20077;-72
2021/06/09 10:54:16;;;;;;;9.73;8.07;;;23.30;99.90;;;;;;5047253;28;20127;-72
2021/06/09 10:56:45;;;;;;;8.80;7.90;;;23.00;99.90;;;;;;5043002;28;20081;-74
2021/06/09 10:59:15;;;;;;;8.05;7.25;;;23.20;99.90;;;;;;5040787;28;20109;-72
2021/06/09 11:01:43;;;;;;;9.35;7.97;;;23.30;99.90;;;;;;5044075;28;20073;-72
2021/06/09 11:04:09;;;;;;;8.82;7.45;;;23.20;99.90;;;;;;5028398;28;20089;-72
2021/06/09 11:06:38;;;;;;;8.50;6.95;;;23.20;99.90;;;;;;5045689;28;20092;-72
2021/06/09 11:09:24;;;;;;;9.57;8.20;;;23.30;99.90;;;;;;5047708;28;20456;-72
2021/06/09 11:12:12;;;;;;;8.05;7.18;;;23.20;99.90;;;;;;5047385;28;20108;-73
2021/06/09 11:15:09;;;;;;;8.05;7.25;;;23.50;99.90;;;;;;5045033;28;20081;-73
2021/06/09 11:17:44;;;;;;;8.73;6.80;;;23.80;99.90;;;;;;5022205;28;20143;-73
2021/06/09 11:20:16;;;;;;;7.68;6.97;;;23.80;99.90;;;;;;5046182;28;20107;-73
2021/06/09 11:22:46;;;;;;;7.88;7.07;;;24.00;99.90;;;;;;5043860;28;20077;-72
2021/06/09 11:25:21;;;;;;;9.00;7.28;;;24.00;99.90;;;;;;5046538;28;20116;-72
2021/06/09 11:27:59;;;;;;;9.80;7.60;;;23.70;99.90;;;;;;5040633;28;20083;-72
2021/06/09 11:30:24;;;;;;;9.82;7.88;;;24.10;99.90;;;;;;5044680;28;20113;-72
2021/06/09 11:32:54;;;;;;;8.60;7.43;;;23.90;99.90;;;;;;5046402;28;20105;-72
2021/06/09 11:35:40;;;;;;;10.00;7.68;;;23.80;99.90;;;;;;5047835;28;20765;-72
2021/06/09 11:38:12;;;;;;;8.57;7.70;;;23.60;99.90;;;;;;5043703;28;20581;-72
2021/06/09 11:41:02;;;;;;;9.05;6.47;;;23.50;99.90;;;;;;5045339;28;20093;-71
2021/06/09 11:43:39;;;;;;;8.43;6.93;;;23.50;99.90;;;;;;5040094;28;20090;-72
2021/06/09 11:46:17;;;;;;;6.80;6.20;;;23.50;99.90;;;;;;5046814;28;20069;-72
2021/06/09 11:49:06;;;;;;;8.88;6.78;;;23.40;99.90;;;;;;5044148;28;20062;-72
2021/06/09 11:51:56;;;;;;;7.35;6.65;;;23.30;99.90;;;;;;5028850;28;20120;-72
2021/06/09 11:54:27;;;;;;;8.05;7.25;;;23.20;99.90;;;;;;5044760;28;20121;-72
2021/06/09 11:56:57;;;;;;;7.95;6.60;;;23.20;99.90;;;;;;5038173;28;20172;-72
2021/06/09 11:59:30;;;;;;;9.93;7.15;;;23.10;99.90;;;;;;5039878;28;20116;-72
2021/06/09 12:01:59;;;;;;;8.32;6.43;;;23.00;99.90;;;;;;5042490;28;20185;-72
2021/06/09 12:04:37;;;;;;;12.05;6.60;;;23.00;99.90;;;;;;5041349;28;20172;-72
2021/06/09 12:07:10;;;;;;;7.20;6.50;;;23.20;99.90;;;;;;5040302;28;20081;-73
2021/06/09 12:09:41;;;;;;;7.50;6.80;;;23.30;99.90;;;;;;5042453;28;20096;-72
2021/06/09 12:12:22;;;;;;;6.70;6.10;;;23.30;99.90;;;;;;5041379;28;20097;-72
2021/06/09 12:14:50;;;;;;;6.30;5.63;;;23.30;99.40;;;;;;5018397;28;20069;-74
2021/06/09 12:17:19;;;;;;;6.40;5.80;;;23.30;98.50;;;;;;5039508;28;20078;-72
2021/06/09 12:19:48;;;;;;;6.63;6.03;;;23.40;99.50;;;;;;5035099;28;20190;-73
2021/06/09 12:22:17;;;;;;;7.20;6.50;;;23.60;99.90;;;;;;5048286;28;20073;-72
2021/06/09 12:24:58;;;;;;;9.13;6.47;;;23.80;99.90;;;;;;5046314;28;20710;-72
2021/06/09 12:27:24;;;;;;;7.05;6.20;;;23.90;99.90;;;;;;5047981;28;20072;-72
2021/06/09 12:29:50;;;;;;;8.38;6.50;;;23.90;99.70;;;;;;5048256;28;20575;-72
2021/06/09 12:32:24;;;;;;;8.82;7.10;;;23.90;99.90;;;;;;5049031;28;20145;-72
2021/06/09 12:34:56;;;;;;;8.07;7.25;;;24.00;99.80;;;;;;5048290;28;20077;-72
2021/06/09 12:37:23;;;;;;;6.50;5.85;;;24.00;99.90;;;;;;5029825;28;20077;-72
2021/06/09 12:40:13;;;;;;;8.45;6.28;;;24.10;99.90;;;;;;5047117;28;20104;-72
2021/06/09 12:42:45;;;;;;;6.75;5.93;;;24.00;99.30;;;;;;5046507;28;20078;-72
2021/06/09 12:45:11;;;;;;;6.93;6.32;;;24.10;99.30;;;;;;5013877;28;20105;-72
2021/06/09 12:47:42;;;;;;;7.10;6.50;;;24.20;99.80;;;;;;5042569;28;20089;-72
2021/06/09 12:50:11;;;;;;;7.10;6.40;;;24.20;99.40;;;;;;5024365;28;20705;-72